createdAt,value
2022-10-26T00:01:40.200Z,31.00
2022-10-26T00:04:09.513Z,31.00
2022-10-26T00:06:38.816Z,31.75
2022-10-26T00:09:08.145Z,31.75
2022-10-26T00:11:37.622Z,32.50
2022-10-26T00:14:07.032Z,31.00
2022-10-26T00:16:36.299Z,31.00
2022-10-26T00:19:05.637Z,30.75
2022-10-26T00:21:35.566Z,32.50
2022-10-26T00:24:04.873Z,33.75
2022-10-26T00:26:34.239Z,30.75
2022-10-26T00:29:03.556Z,31.00
2022-10-26T00:31:32.915Z,31.00
2022-10-26T00:34:02.184Z,30.50
2022-10-26T00:36:31.580Z,29.00
2022-10-26T00:39:00.984Z,28.75
2022-10-26T00:41:34.829Z,29.25
2022-10-26T00:44:24.164Z,28.50
2022-10-26T00:46:53.773Z,30.00
2022-10-26T00:49:23.093Z,31.50
2022-10-26T00:51:53.979Z,29.75
2022-10-26T00:54:23.696Z,30.25
2022-10-26T00:56:54.030Z,30.00
2022-10-26T00:59:25.078Z,28.50
2022-10-26T01:01:55.064Z,29.50
2022-10-26T01:04:24.725Z,29.50
2022-10-26T01:06:54.728Z,32.50
2022-10-26T01:09:24.530Z,32.50
2022-10-26T01:11:53.837Z,31.25
2022-10-26T01:14:23.715Z,33.50
2022-10-26T01:16:56.031Z,34.50
2022-10-26T01:19:25.463Z,33.75
2022-10-26T01:22:17.014Z,38.50
2022-10-26T01:25:04.464Z,41.00
2022-10-26T01:27:35.979Z,40.00
2022-10-26T01:30:14.599Z,38.00
2022-10-26T01:32:51.333Z,38.75
2022-10-26T01:35:27.530Z,39.00
2022-10-26T01:38:00.221Z,36.75
2022-10-26T01:40:41.436Z,37.50
2022-10-26T01:43:13.727Z,36.75
2022-10-26T01:45:45.461Z,34.25
2022-10-26T01:48:16.705Z,34.00
2022-10-26T01:50:47.235Z,33.50
2022-10-26T01:53:17.814Z,34.00
2022-10-26T01:55:49.965Z,32.75
2022-10-26T01:58:37.480Z,33.50
2022-10-26T02:01:25.930Z,33.00
2022-10-26T02:04:00.908Z,33.75
2022-10-26T02:06:48.042Z,34.75
2022-10-26T02:09:20.406Z,33.00
2022-10-26T02:11:53.212Z,33.75
2022-10-26T02:14:22.639Z,33.00
2022-10-26T02:16:51.865Z,32.25
2022-10-26T02:19:26.901Z,33.75
2022-10-26T02:21:57.844Z,31.75
2022-10-26T02:24:29.014Z,33.25
2022-10-26T02:26:59.036Z,33.00
2022-10-26T02:29:30.326Z,34.25
2022-10-26T02:32:00.635Z,34.00
2022-10-26T02:34:30.934Z,33.75
2022-10-26T02:37:02.632Z,33.00
2022-10-26T02:39:33.853Z,33.75
2022-10-26T02:42:05.197Z,33.00
2022-10-26T02:44:39.202Z,33.75
2022-10-26T02:47:08.559Z,33.00
2022-10-26T02:49:38.044Z,32.50
2022-10-26T02:52:18.842Z,32.75
2022-10-26T02:54:55.356Z,31.00
2022-10-26T02:57:33.889Z,34.50
2022-10-26T03:00:03.562Z,34.00
2022-10-26T03:02:33.250Z,35.50
2022-10-26T03:05:11.543Z,36.50
2022-10-26T03:07:41.234Z,36.00
2022-10-26T03:10:10.817Z,34.75
2022-10-26T03:12:40.395Z,34.50
2022-10-26T03:15:09.980Z,34.50
2022-10-26T03:17:39.374Z,31.75
2022-10-26T03:20:09.230Z,33.25
2022-10-26T03:22:38.624Z,31.75
2022-10-26T03:27:39.309Z,31.50
2022-10-26T03:30:09.002Z,32.25
2022-10-26T03:32:38.340Z,32.00
2022-10-26T03:35:08.622Z,32.50
2022-10-26T03:37:37.948Z,31.75
2022-10-26T03:40:07.484Z,32.50
2022-10-26T03:42:39.596Z,33.75
2022-10-26T03:45:10.067Z,32.75
2022-10-26T03:47:45.249Z,31.75
2022-10-26T03:50:15.985Z,32.75
2022-10-26T03:52:45.969Z,30.25
2022-10-26T03:55:15.915Z,30.75
2022-10-26T03:57:46.106Z,30.75
2022-10-26T04:00:17.306Z,30.75
2022-10-26T04:02:53.005Z,30.75
2022-10-26T04:05:22.434Z,30.75
2022-10-26T04:07:59.150Z,29.50
2022-10-26T04:10:29.496Z,29.25
2022-10-26T04:13:00.151Z,30.50
2022-10-26T04:15:29.892Z,29.75
2022-10-26T04:18:03.589Z,30.00
2022-10-26T04:20:35.255Z,30.25
2022-10-26T04:23:05.956Z,28.50
2022-10-26T04:25:35.959Z,30.50
2022-10-26T04:28:06.115Z,29.25
2022-10-26T04:30:36.185Z,29.25
2022-10-26T04:33:06.200Z,30.75
2022-10-26T04:35:35.570Z,29.75
2022-10-26T04:38:07.063Z,29.00
2022-10-26T04:40:36.779Z,29.50
2022-10-26T04:43:06.126Z,27.75
2022-10-26T04:45:35.583Z,28.00
2022-10-26T04:48:04.928Z,28.25
2022-10-26T04:50:34.691Z,29.25
2022-10-26T04:53:06.194Z,28.25
2022-10-26T04:55:36.163Z,30.25
2022-10-26T04:58:05.619Z,28.00
2022-10-26T05:00:35.402Z,28.00
2022-10-26T05:03:05.887Z,27.25
2022-10-26T05:05:36.470Z,28.25
2022-10-26T05:08:06.218Z,26.50
2022-10-26T05:10:36.042Z,26.00
2022-10-26T05:13:05.483Z,26.50
2022-10-26T05:15:34.838Z,26.50
2022-10-26T05:18:06.693Z,27.00
2022-10-26T05:20:37.061Z,27.00
2022-10-26T05:23:08.274Z,24.50
2022-10-26T05:25:38.409Z,27.75
2022-10-26T05:28:10.725Z,26.00
2022-10-26T05:30:40.588Z,24.75
2022-10-26T05:33:10.827Z,23.75
2022-10-26T05:35:40.519Z,25.25
2022-10-26T05:38:15.277Z,26.00
2022-10-26T05:40:51.808Z,26.50
2022-10-26T05:43:21.907Z,26.00
2022-10-26T05:45:54.848Z,25.75
2022-10-26T05:48:24.540Z,25.75
2022-10-26T05:50:53.848Z,24.00
2022-10-26T05:53:23.198Z,26.75
2022-10-26T05:55:52.977Z,26.00
2022-10-26T05:58:22.657Z,27.00
2022-10-26T06:00:52.077Z,27.75
2022-10-26T06:03:21.594Z,26.50
2022-10-26T06:05:58.132Z,29.00
2022-10-26T06:08:28.681Z,29.00
2022-10-26T06:11:00.656Z,29.00
2022-10-26T06:13:30.052Z,27.75
2022-10-26T06:16:05.344Z,27.75
2022-10-26T06:18:59.541Z,29.75
2022-10-26T06:21:43.534Z,29.00
2022-10-26T06:24:18.973Z,28.75
2022-10-26T06:26:55.393Z,28.25
2022-10-26T06:29:33.461Z,29.00
2022-10-26T06:32:03.204Z,27.75
2022-10-26T06:34:36.520Z,27.75
2022-10-26T06:37:06.551Z,28.00
2022-10-26T06:39:37.910Z,28.75
2022-10-26T06:42:08.290Z,28.00
2022-10-26T06:44:37.922Z,27.50
2022-10-26T06:47:10.059Z,27.50
2022-10-26T06:49:42.635Z,27.75
2022-10-26T06:52:15.543Z,27.75
2022-10-26T06:54:55.833Z,28.00
2022-10-26T06:57:27.134Z,27.75
2022-10-26T06:59:57.297Z,26.75
2022-10-26T07:02:26.796Z,27.75
2022-10-26T07:04:56.536Z,27.00
2022-10-26T07:07:27.528Z,28.00
2022-10-26T07:09:57.329Z,27.00
2022-10-26T07:12:30.759Z,26.00
2022-10-26T07:15:02.888Z,28.00
2022-10-26T07:17:32.333Z,27.75
2022-10-26T07:20:01.621Z,27.00
2022-10-26T07:22:30.968Z,27.50
2022-10-26T07:25:02.908Z,27.00
2022-10-26T07:27:32.770Z,27.25
2022-10-26T07:30:02.070Z,26.25
2022-10-26T07:32:31.781Z,27.75
2022-10-26T07:35:01.148Z,27.25
2022-10-26T07:37:30.524Z,26.75
2022-10-26T07:40:05.566Z,27.00
2022-10-26T07:42:37.745Z,28.00
2022-10-26T07:45:07.712Z,25.00
2022-10-26T07:47:36.959Z,27.75
2022-10-26T07:50:07.229Z,26.50
2022-10-26T07:52:38.300Z,26.75
2022-10-26T07:55:08.001Z,27.50
2022-10-26T07:57:37.254Z,27.00
2022-10-26T08:00:08.120Z,26.75
2022-10-26T08:02:37.954Z,28.00
2022-10-26T08:05:07.836Z,29.75
2022-10-26T08:07:42.036Z,31.75
2022-10-26T08:10:11.702Z,32.75
2022-10-26T08:12:41.147Z,32.00
2022-10-26T08:15:11.201Z,31.25
2022-10-26T08:17:40.542Z,32.75
2022-10-26T08:20:10.087Z,30.00
2022-10-26T08:22:39.369Z,30.00
2022-10-26T08:25:08.709Z,28.50
2022-10-26T08:27:38.126Z,31.25
2022-10-26T08:30:07.655Z,30.75
2022-10-26T08:32:37.165Z,28.50
2022-10-26T08:35:06.581Z,27.75
2022-10-26T08:37:36.122Z,27.75
2022-10-26T08:40:06.423Z,27.75
2022-10-26T08:42:39.717Z,28.00
2022-10-26T08:45:37.063Z,32.00
2022-10-26T08:48:38.541Z,32.00
2022-10-26T08:51:10.956Z,31.00
2022-10-26T08:53:45.500Z,29.00
2022-10-26T08:56:37.846Z,30.75
2022-10-26T08:59:19.940Z,31.50
2022-10-26T09:01:49.271Z,29.00
2022-10-26T09:04:18.664Z,29.00
2022-10-26T09:07:06.508Z,29.00
2022-10-26T09:09:46.191Z,27.75
2022-10-26T09:12:28.378Z,29.00
2022-10-26T09:15:06.642Z,27.75
2022-10-26T09:17:54.101Z,28.75
2022-10-26T09:20:28.099Z,27.50
2022-10-26T09:23:10.450Z,27.75
2022-10-26T09:25:43.567Z,28.00
2022-10-26T09:28:19.132Z,27.00
2022-10-26T09:30:49.677Z,27.50
2022-10-26T09:33:19.069Z,26.75
2022-10-26T09:35:51.349Z,25.75
2022-10-26T09:38:30.208Z,26.75
2022-10-26T09:41:17.816Z,28.75
2022-10-26T09:44:05.920Z,24.00
2022-10-26T09:46:42.291Z,26.75
2022-10-26T09:49:12.953Z,27.75
2022-10-26T09:51:44.345Z,26.25
2022-10-26T09:54:18.522Z,25.75
2022-10-26T09:57:01.171Z,26.00
2022-10-26T09:59:32.740Z,26.50
2022-10-26T10:02:02.372Z,27.25
2022-10-26T10:04:35.047Z,26.75
2022-10-26T10:07:04.699Z,26.00
2022-10-26T10:09:34.055Z,28.75
2022-10-26T10:12:05.029Z,28.25
2022-10-26T10:14:42.019Z,29.75
2022-10-26T10:17:32.242Z,30.75
2022-10-26T10:20:13.708Z,28.25
2022-10-26T10:22:54.804Z,29.75
2022-10-26T10:25:25.949Z,29.25
2022-10-26T10:27:55.964Z,30.25
2022-10-26T10:30:29.615Z,30.25
2022-10-26T10:33:09.496Z,29.00
2022-10-26T10:35:40.739Z,28.25
2022-10-26T10:38:17.492Z,28.25
2022-10-26T10:40:54.945Z,28.00
2022-10-26T10:43:24.887Z,29.50
2022-10-26T10:45:59.548Z,27.00
2022-10-26T10:48:31.748Z,30.00
2022-10-26T10:51:04.975Z,27.75
2022-10-26T10:53:34.894Z,28.25
2022-10-26T10:56:22.612Z,28.00
2022-10-26T10:58:55.299Z,28.25
2022-10-26T11:01:26.861Z,29.00
2022-10-26T11:04:05.824Z,28.50
2022-10-26T11:06:38.590Z,27.75
2022-10-26T11:09:17.217Z,31.75
2022-10-26T11:11:53.078Z,32.75
2022-10-26T11:14:29.981Z,30.50
2022-10-26T11:17:05.282Z,30.00
2022-10-26T11:19:35.056Z,30.75
2022-10-26T11:22:05.949Z,33.75
2022-10-26T11:24:44.020Z,39.00
2022-10-26T11:27:19.096Z,34.75
2022-10-26T11:29:54.396Z,36.25
2022-10-26T11:32:32.338Z,34.00
2022-10-26T11:35:19.834Z,33.75
2022-10-26T11:37:52.135Z,35.75
2022-10-26T11:40:28.814Z,40.25
2022-10-26T11:43:07.804Z,34.50
2022-10-26T11:45:41.019Z,37.50
2022-10-26T11:48:16.945Z,34.25
2022-10-26T11:50:53.010Z,36.50
2022-10-26T11:53:34.330Z,37.50
2022-10-26T11:56:05.454Z,38.25
2022-10-26T11:58:35.565Z,37.75
2022-10-26T12:01:12.412Z,34.75
2022-10-26T12:03:48.181Z,36.25
2022-10-26T12:06:20.976Z,34.00
2022-10-26T12:09:01.333Z,33.00
2022-10-26T12:11:40.629Z,34.00
2022-10-26T12:14:30.255Z,31.00
2022-10-26T12:17:02.906Z,31.50
2022-10-26T12:19:50.913Z,33.25
2022-10-26T12:22:22.337Z,32.00
2022-10-26T12:25:14.691Z,30.50
2022-10-26T12:27:45.010Z,30.00
2022-10-26T12:30:14.367Z,31.00
2022-10-26T12:32:44.011Z,29.75
2022-10-26T12:35:33.257Z,30.00
2022-10-26T12:38:03.469Z,32.50
2022-10-26T12:40:33.876Z,31.00
2022-10-26T12:43:15.524Z,29.25
2022-10-26T12:45:45.859Z,30.00
2022-10-26T12:48:27.645Z,27.75
2022-10-26T12:51:39.651Z,27.50
2022-10-26T12:54:21.100Z,28.25
2022-10-26T12:57:09.810Z,28.00
2022-10-26T12:59:47.527Z,27.75
2022-10-26T13:02:31.775Z,26.75
2022-10-26T13:05:13.282Z,27.25
2022-10-26T13:07:43.341Z,27.75
2022-10-26T13:10:15.467Z,25.75
2022-10-26T13:12:44.771Z,26.50
2022-10-26T13:15:37.007Z,28.00
2022-10-26T13:18:16.164Z,26.00
2022-10-26T13:21:05.570Z,25.25
2022-10-26T13:23:36.296Z,25.00
2022-10-26T13:26:08.527Z,25.50
2022-10-26T13:28:40.871Z,25.25
2022-10-26T13:31:13.115Z,27.00
2022-10-26T13:33:43.938Z,24.75
2022-10-26T13:36:39.848Z,23.50
2022-10-26T13:39:16.302Z,22.50
2022-10-26T13:41:47.242Z,23.00
2022-10-26T13:44:28.886Z,24.00
2022-10-26T13:47:11.336Z,24.00
2022-10-26T13:49:45.983Z,23.75
2022-10-26T13:52:28.429Z,23.50
2022-10-26T13:55:05.943Z,23.75
2022-10-26T13:57:41.476Z,22.75
2022-10-26T14:00:17.805Z,22.25
2022-10-26T14:02:47.453Z,22.00
2022-10-26T14:05:20.726Z,21.75
2022-10-26T14:07:52.626Z,21.00
2022-10-26T14:10:31.824Z,19.00
2022-10-26T14:13:02.524Z,21.50
2022-10-26T14:15:34.246Z,20.50
2022-10-26T14:18:05.728Z,19.75
2022-10-26T14:20:35.659Z,21.50
2022-10-26T14:23:05.321Z,19.50
2022-10-26T14:25:41.948Z,20.75
2022-10-26T14:28:26.581Z,20.50
2022-10-26T14:30:56.642Z,20.00
2022-10-26T14:33:30.227Z,19.75
2022-10-26T14:36:00.571Z,20.00
2022-10-26T14:38:31.597Z,18.75
2022-10-26T14:41:01.784Z,16.50
2022-10-26T14:43:33.237Z,18.50
2022-10-26T14:46:03.489Z,19.00
2022-10-26T14:48:34.412Z,18.50
2022-10-26T14:51:04.598Z,18.50
2022-10-26T14:53:36.757Z,19.00
2022-10-26T14:56:08.731Z,17.25
2022-10-26T14:58:38.808Z,15.00
2022-10-26T15:01:17.862Z,14.25
2022-10-26T15:03:50.626Z,16.00
2022-10-26T15:06:29.831Z,16.75
2022-10-26T15:09:01.109Z,17.00
2022-10-26T15:11:31.864Z,16.75
2022-10-26T15:14:02.420Z,14.25
2022-10-26T15:16:35.677Z,12.75
2022-10-26T15:19:09.414Z,14.50
2022-10-26T15:21:44.374Z,15.75
2022-10-26T15:24:17.840Z,13.75
2022-10-26T15:26:47.748Z,13.50
2022-10-26T15:29:35.398Z,11.75
2022-10-26T15:32:07.441Z,13.25
2022-10-26T15:34:37.542Z,13.75
2022-10-26T15:37:07.219Z,13.00
2022-10-26T15:39:36.998Z,12.00
2022-10-26T15:42:11.184Z,12.75
2022-10-26T15:44:40.926Z,13.25
2022-10-26T15:47:18.471Z,12.50
2022-10-26T15:49:48.572Z,13.00
2022-10-26T15:52:18.254Z,13.00
2022-10-26T15:54:48.096Z,10.75
2022-10-26T15:57:20.693Z,10.50
2022-10-26T15:59:51.874Z,12.75
2022-10-26T16:02:21.464Z,9.25
2022-10-26T16:04:51.069Z,9.75
2022-10-26T16:07:22.086Z,10.25
2022-10-26T16:09:51.457Z,11.00
2022-10-26T16:12:21.127Z,10.25
2022-10-26T16:15:04.635Z,9.00
2022-10-26T16:17:35.365Z,11.00
2022-10-26T16:20:08.867Z,8.50
2022-10-26T16:22:39.223Z,9.50
2022-10-26T16:25:08.936Z,9.00
2022-10-26T16:27:38.310Z,9.00
2022-10-26T16:30:07.846Z,7.25
2022-10-26T16:32:37.389Z,10.75
2022-10-26T16:35:06.899Z,8.75
2022-10-26T16:37:36.217Z,8.25
2022-10-26T16:40:06.094Z,8.25
2022-10-26T16:42:35.354Z,8.50
2022-10-26T16:45:04.826Z,6.00
2022-10-26T16:47:38.231Z,5.50
2022-10-26T16:50:14.590Z,8.50
2022-10-26T16:52:43.921Z,7.00
2022-10-26T16:55:13.296Z,6.50
2022-10-26T16:57:42.580Z,7.00
2022-10-26T17:00:12.120Z,7.00
2022-10-26T17:02:41.561Z,7.25
2022-10-26T17:05:11.293Z,6.50
2022-10-26T17:07:40.541Z,7.00
2022-10-26T17:10:09.953Z,6.00
2022-10-26T17:12:39.409Z,6.00
2022-10-26T17:15:08.990Z,7.75
2022-10-26T17:17:38.330Z,6.75
2022-10-26T17:20:07.986Z,6.75
2022-10-26T17:22:37.299Z,6.75
2022-10-26T17:25:06.869Z,5.25
2022-10-26T17:27:36.187Z,4.50
2022-10-26T17:30:05.543Z,7.00
2022-10-26T17:32:34.918Z,6.00
2022-10-26T17:35:04.236Z,4.50
2022-10-26T17:37:33.508Z,6.00
2022-10-26T17:40:02.817Z,4.25
2022-10-26T17:42:32.134Z,6.00
2022-10-26T17:45:01.438Z,6.75
2022-10-26T17:47:30.752Z,6.00
2022-10-26T17:49:59.935Z,6.00
2022-10-26T17:52:29.288Z,5.00
2022-10-26T17:55:00.502Z,4.75
2022-10-26T17:57:33.615Z,4.75
2022-10-26T18:00:03.031Z,5.00
2022-10-26T18:02:41.447Z,4.00
2022-10-26T18:05:11.405Z,4.00
2022-10-26T18:07:40.741Z,5.00
2022-10-26T18:10:32.879Z,4.25
2022-10-26T18:12:59.943Z,4.00
2022-10-26T18:15:29.286Z,4.75
2022-10-26T18:18:00.783Z,4.25
2022-10-26T18:20:30.381Z,3.50
2022-10-26T18:22:59.825Z,4.75
2022-10-26T18:25:29.591Z,4.50
2022-10-26T18:27:59.179Z,3.50
2022-10-26T18:30:28.589Z,4.25
2022-10-26T18:32:58.066Z,4.00
2022-10-26T18:35:27.393Z,4.00
2022-10-26T18:37:56.757Z,3.25
2022-10-26T18:40:26.039Z,3.00
2022-10-26T18:42:55.266Z,3.00
2022-10-26T18:45:24.556Z,3.00
2022-10-26T18:47:54.114Z,3.25
2022-10-26T18:50:23.570Z,2.00
2022-10-26T18:52:52.865Z,3.00
2022-10-26T18:55:22.177Z,4.00
2022-10-26T18:57:51.652Z,2.75
2022-10-26T19:00:21.441Z,3.00
2022-10-26T19:02:52.475Z,3.00
2022-10-26T19:05:22.038Z,3.00
2022-10-26T19:07:51.332Z,2.00
2022-10-26T19:10:20.627Z,3.00
2022-10-26T19:12:50.172Z,2.00
2022-10-26T19:15:19.657Z,3.00
2022-10-26T19:17:48.978Z,1.75
2022-10-26T19:20:18.754Z,2.50
2022-10-26T19:22:48.210Z,2.75
2022-10-26T19:25:17.817Z,3.00
2022-10-26T19:27:47.586Z,2.00
2022-10-26T19:30:18.047Z,2.00
2022-10-26T19:32:47.386Z,2.00
2022-10-26T19:35:16.731Z,2.50
2022-10-26T19:37:46.027Z,3.00
2022-10-26T19:40:15.404Z,2.00
2022-10-26T19:42:44.627Z,2.00
2022-10-26T19:45:13.863Z,2.25
2022-10-26T19:47:43.139Z,2.00
2022-10-26T19:50:12.506Z,2.00
2022-10-26T19:52:42.551Z,1.50
2022-10-26T19:55:11.930Z,2.00
2022-10-26T19:57:41.264Z,1.00
2022-10-26T20:00:10.949Z,1.25
2022-10-26T20:02:43.217Z,2.00
2022-10-26T20:05:12.465Z,2.25
2022-10-26T20:07:41.848Z,2.00
2022-10-26T20:10:11.182Z,1.75
2022-10-26T20:12:40.435Z,1.50
2022-10-26T20:15:10.038Z,1.75
2022-10-26T20:17:39.450Z,2.00
2022-10-26T20:20:09.079Z,1.25
2022-10-26T20:22:38.439Z,2.00
2022-10-26T20:25:07.891Z,2.00
2022-10-26T20:27:38.798Z,1.00
2022-10-26T20:30:08.352Z,2.00
2022-10-26T20:32:37.713Z,1.25
2022-10-26T20:35:07.207Z,1.00
2022-10-26T20:37:36.962Z,1.00
2022-10-26T20:40:06.420Z,2.00
2022-10-26T20:42:36.002Z,1.50
2022-10-26T20:45:09.924Z,2.00
2022-10-26T20:47:39.758Z,1.00
2022-10-26T20:50:09.718Z,1.00
2022-10-26T20:52:52.920Z,1.00
2022-10-26T20:55:22.690Z,1.00
2022-10-26T20:57:58.237Z,1.00
2022-10-26T21:00:27.773Z,1.00
2022-10-26T21:02:57.075Z,1.00
2022-10-26T21:05:30.221Z,1.00
2022-10-26T21:08:01.948Z,1.75
2022-10-26T21:10:31.307Z,1.00
2022-10-26T21:13:00.582Z,2.00
2022-10-26T21:15:29.871Z,1.00
2022-10-26T21:17:59.112Z,0.25
2022-10-26T21:20:28.439Z,1.00
2022-10-26T21:22:57.839Z,1.25
2022-10-26T21:25:27.122Z,1.00
2022-10-26T21:27:59.528Z,1.00
2022-10-26T21:30:28.819Z,1.00
2022-10-26T21:33:01.467Z,1.00
2022-10-26T21:35:30.946Z,1.00
2022-10-26T21:38:00.295Z,1.00
2022-10-26T21:40:29.563Z,1.00
2022-10-26T21:42:58.842Z,1.25
2022-10-26T21:45:28.241Z,1.00
2022-10-26T21:47:57.567Z,1.00
2022-10-26T21:50:26.918Z,1.00
2022-10-26T21:52:56.280Z,1.00
2022-10-26T21:55:25.641Z,0.50
2022-10-26T21:57:55.272Z,1.00
2022-10-26T22:00:24.736Z,0.00
2022-10-26T22:02:54.094Z,1.00
2022-10-26T22:05:23.444Z,0.25
2022-10-26T22:07:53.035Z,0.00
2022-10-26T22:10:22.483Z,1.00
2022-10-26T22:12:51.760Z,1.00
2022-10-26T22:15:21.093Z,1.00
2022-10-26T22:17:50.579Z,1.00
2022-10-26T22:20:20.032Z,2.00
2022-10-26T22:22:49.292Z,1.00
2022-10-26T22:25:18.770Z,1.00
2022-10-26T22:27:49.281Z,0.25
2022-10-26T22:30:19.295Z,2.00
2022-10-26T22:32:48.874Z,2.00
2022-10-26T22:35:29.033Z,2.00
2022-10-26T22:37:59.433Z,2.25
2022-10-26T22:40:28.893Z,2.00
2022-10-26T22:42:58.378Z,2.00
2022-10-26T22:45:27.656Z,2.00
2022-10-26T22:47:57.066Z,2.75
2022-10-26T22:50:26.424Z,2.00
2022-10-26T22:52:55.682Z,2.00
2022-10-26T22:55:24.917Z,2.75
2022-10-26T22:57:55.444Z,3.00
2022-10-26T23:00:25.197Z,3.25
2022-10-26T23:02:54.417Z,2.50
2022-10-26T23:05:23.695Z,2.00
2022-10-26T23:07:53.171Z,3.00
2022-10-26T23:10:22.614Z,2.00
2022-10-26T23:12:52.174Z,2.75
2022-10-26T23:15:21.467Z,2.75
2022-10-26T23:17:50.928Z,2.00
2022-10-26T23:20:20.359Z,3.00
2022-10-26T23:22:50.038Z,2.00
2022-10-26T23:25:19.504Z,3.00
2022-10-26T23:27:48.819Z,2.00
2022-10-26T23:30:18.364Z,3.00
2022-10-26T23:32:47.677Z,4.00
2022-10-26T23:35:17.116Z,4.00
2022-10-26T23:37:46.454Z,4.00
2022-10-26T23:40:15.728Z,6.00
2022-10-26T23:42:44.937Z,4.00
2022-10-26T23:45:14.357Z,6.00
2022-10-26T23:47:43.645Z,5.00
2022-10-26T23:50:12.934Z,4.00
2022-10-26T23:52:42.256Z,4.50
2022-10-26T23:55:11.656Z,5.25
2022-10-26T23:57:41.206Z,5.25
